createdAt,value
2022-08-04T00:00:02.049Z,46.47
2022-08-04T00:01:02.217Z,45.95
2022-08-04T00:02:02.127Z,45.70
2022-08-04T00:03:02.141Z,47.63
2022-08-04T00:04:01.987Z,48.98
2022-08-04T00:05:02.192Z,49.12
2022-08-04T00:06:01.989Z,48.93
2022-08-04T00:07:01.987Z,49.90
2022-08-04T00:08:01.968Z,48.80
2022-08-04T00:09:01.929Z,53.38
2022-08-04T00:10:01.869Z,49.91
2022-08-04T00:11:01.911Z,49.33
2022-08-04T00:12:01.865Z,47.40
2022-08-04T00:13:01.849Z,47.76
2022-08-04T00:14:03.108Z,49.73
2022-08-04T00:15:01.836Z,49.46
2022-08-04T00:16:01.861Z,51.40
2022-08-04T00:17:01.809Z,51.54
2022-08-04T00:18:01.797Z,48.11
2022-08-04T00:19:01.764Z,51.15
2022-08-04T00:20:02.126Z,53.47
2022-08-04T00:21:01.777Z,51.49
2022-08-04T00:22:01.825Z,48.96
2022-08-04T00:23:01.800Z,53.44
2022-08-04T00:24:11.358Z,53.17
2022-08-04T00:25:02.748Z,52.18
2022-08-04T00:26:01.774Z,53.94
2022-08-04T00:27:01.830Z,49.20
2022-08-04T00:28:01.788Z,48.55
2022-08-04T00:29:01.788Z,50.51
2022-08-04T00:30:01.783Z,50.41
2022-08-04T00:31:01.759Z,50.77
2022-08-04T00:32:01.768Z,47.37
2022-08-04T00:33:02.776Z,48.20
2022-08-04T00:34:02.755Z,49.74
2022-08-04T00:35:01.824Z,47.90
2022-08-04T00:36:01.747Z,50.81
2022-08-04T00:37:01.704Z,48.20
2022-08-04T00:38:01.783Z,50.20
2022-08-04T00:39:01.731Z,47.37
2022-08-04T00:40:01.706Z,47.37
2022-08-04T00:41:01.768Z,51.65
2022-08-04T00:42:01.710Z,48.89
2022-08-04T00:43:01.736Z,49.19
2022-08-04T00:44:01.733Z,51.54
2022-08-04T00:45:02.664Z,48.98
2022-08-04T00:46:17.599Z,50.61
2022-08-04T00:47:02.616Z,55.60
2022-08-04T00:48:01.653Z,49.41
2022-08-04T00:49:01.791Z,54.03
2022-08-04T00:50:01.643Z,53.41
2022-08-04T00:51:01.621Z,50.79
2022-08-04T00:52:32.599Z,54.73
2022-08-04T00:53:02.553Z,51.70
2022-08-04T00:54:01.600Z,55.03
2022-08-04T00:55:03.307Z,49.89
2022-08-04T00:56:03.647Z,54.50
2022-08-04T00:57:01.649Z,51.89
2022-08-04T00:58:01.610Z,55.03
2022-08-04T00:59:01.575Z,49.79
2022-08-04T01:00:01.653Z,53.93
2022-08-04T01:01:01.652Z,55.19
2022-08-04T01:02:01.587Z,49.09
2022-08-04T01:03:01.527Z,50.71
2022-08-04T01:04:01.601Z,54.67
2022-08-04T01:05:01.513Z,53.03
2022-08-04T01:06:01.623Z,56.35
2022-08-04T01:07:01.484Z,52.73
2022-08-04T01:08:01.621Z,56.65
2022-08-04T01:09:02.405Z,52.78
2022-08-04T01:10:01.464Z,55.83
2022-08-04T01:11:01.495Z,57.01
2022-08-04T01:12:01.437Z,52.66
2022-08-04T01:13:01.391Z,48.49
2022-08-04T01:14:01.397Z,47.82
2022-08-04T01:15:01.365Z,49.05
2022-08-04T01:16:01.350Z,48.21
2022-08-04T01:17:01.454Z,53.69
2022-08-04T01:18:01.373Z,52.93
2022-08-04T01:19:01.396Z,48.10
2022-08-04T01:20:01.354Z,49.83
2022-08-04T01:21:01.359Z,54.50
2022-08-04T01:22:01.416Z,52.08
2022-08-04T01:23:01.329Z,49.19
2022-08-04T01:24:01.369Z,49.58
2022-08-04T01:25:02.135Z,49.40
2022-08-04T01:26:01.272Z,54.20
2022-08-04T01:27:01.475Z,47.95
2022-08-04T01:28:02.436Z,47.70
2022-08-04T01:29:01.427Z,50.76
2022-08-04T01:30:01.313Z,52.48
2022-08-04T01:31:01.334Z,53.72
2022-08-04T01:32:01.423Z,49.93
2022-08-04T01:33:01.343Z,48.63
2022-08-04T01:34:04.278Z,50.49
2022-08-04T01:35:02.201Z,51.57
2022-08-04T01:36:01.292Z,49.95
2022-08-04T01:37:01.255Z,52.56
2022-08-04T01:38:01.285Z,51.71
2022-08-04T01:39:01.287Z,52.35
2022-08-04T01:40:01.253Z,53.28
2022-08-04T01:41:01.229Z,49.10
2022-08-04T01:42:01.232Z,51.59
2022-08-04T01:43:01.218Z,51.42
2022-08-04T01:44:01.346Z,56.31
2022-08-04T01:45:01.213Z,53.21
2022-08-04T01:46:01.257Z,48.11
2022-08-04T01:47:02.217Z,50.45
2022-08-04T01:48:01.272Z,49.82
2022-08-04T01:49:01.205Z,51.14
2022-08-04T01:50:01.115Z,54.45
2022-08-04T01:51:01.086Z,50.59
2022-08-04T01:52:01.083Z,51.41
2022-08-04T01:53:01.079Z,50.67
2022-08-04T01:54:01.155Z,52.33
2022-08-04T01:55:01.154Z,54.18
2022-08-04T01:56:01.107Z,53.84
2022-08-04T01:57:01.099Z,53.86
2022-08-04T01:58:02.075Z,53.64
2022-08-04T01:59:01.069Z,52.36
2022-08-04T02:00:01.119Z,53.24
2022-08-04T02:01:01.179Z,48.64
2022-08-04T02:02:01.175Z,52.88
2022-08-04T02:03:01.138Z,49.01
2022-08-04T02:04:21.505Z,48.62
2022-08-04T02:05:02.263Z,47.92
2022-08-04T02:06:02.620Z,48.77
2022-08-04T02:07:01.060Z,49.69
2022-08-04T02:08:01.074Z,50.81
2022-08-04T02:09:01.128Z,52.33
2022-08-04T02:10:01.019Z,50.60
2022-08-04T02:11:01.146Z,50.46
2022-08-04T02:12:01.039Z,50.96
2022-08-04T02:13:02.067Z,49.03
2022-08-04T02:14:00.998Z,48.71
2022-08-04T02:15:01.116Z,52.02
2022-08-04T02:16:01.040Z,54.00
2022-08-04T02:17:01.007Z,49.86
2022-08-04T02:18:01.013Z,50.42
2022-08-04T02:19:00.954Z,50.32
2022-08-04T02:20:00.943Z,51.80
2022-08-04T02:21:00.944Z,52.57
2022-08-04T02:22:01.030Z,55.89
2022-08-04T02:23:00.940Z,51.96
2022-08-04T02:24:00.862Z,53.52
2022-08-04T02:25:00.896Z,52.01
2022-08-04T02:26:00.860Z,51.63
2022-08-04T02:27:00.872Z,52.83
2022-08-04T02:28:01.188Z,50.43
2022-08-04T02:29:02.386Z,51.71
2022-08-04T02:30:00.961Z,54.77
2022-08-04T02:31:00.855Z,56.14
2022-08-04T02:32:00.980Z,54.13
2022-08-04T02:33:00.863Z,52.41
2022-08-04T02:34:00.931Z,53.13
2022-08-04T02:35:00.879Z,49.57
2022-08-04T02:36:02.327Z,49.15
2022-08-04T02:37:00.844Z,49.53
2022-08-04T02:38:00.882Z,52.68
2022-08-04T02:39:00.872Z,53.25
2022-08-04T02:40:00.814Z,53.04
2022-08-04T02:41:00.794Z,54.93
2022-08-04T02:42:00.841Z,54.56
2022-08-04T02:43:00.889Z,52.75
2022-08-04T02:44:00.804Z,50.74
2022-08-04T02:45:00.848Z,52.74
2022-08-04T02:46:00.917Z,53.86
2022-08-04T02:47:00.866Z,56.65
2022-08-04T02:48:29.062Z,54.35
2022-08-04T02:49:02.767Z,50.29
2022-08-04T02:50:00.731Z,53.51
2022-08-04T02:51:00.807Z,53.02
2022-08-04T02:52:00.750Z,51.43
2022-08-04T02:53:00.795Z,49.94
2022-08-04T02:54:00.765Z,53.73
2022-08-04T02:55:00.780Z,52.59
2022-08-04T02:56:00.723Z,54.82
2022-08-04T02:57:00.827Z,50.76
2022-08-04T02:58:00.686Z,55.30
2022-08-04T02:59:00.846Z,57.02
2022-08-04T03:00:00.682Z,53.98
2022-08-04T03:01:00.794Z,53.51
2022-08-04T03:02:00.571Z,51.71
2022-08-04T03:03:00.587Z,55.78
2022-08-04T03:04:00.575Z,54.25
2022-08-04T03:05:00.637Z,54.57
2022-08-04T03:06:01.774Z,53.20
2022-08-04T03:07:00.573Z,58.05
2022-08-04T03:08:00.578Z,55.29
2022-08-04T03:09:00.600Z,55.51
2022-08-04T03:10:00.643Z,54.11
2022-08-04T03:11:00.567Z,54.13
2022-08-04T03:12:00.555Z,57.29
2022-08-04T03:13:00.536Z,52.13
2022-08-04T03:14:00.598Z,55.16
2022-08-04T03:15:00.595Z,55.22
2022-08-04T03:16:00.695Z,56.77
2022-08-04T03:17:00.578Z,57.68
2022-08-04T03:18:00.620Z,55.33
2022-08-04T03:19:00.554Z,54.05
2022-08-04T03:20:00.641Z,53.78
2022-08-04T03:21:00.570Z,55.85
2022-08-04T03:22:00.630Z,58.59
2022-08-04T03:23:13.061Z,57.31
2022-08-04T03:24:02.556Z,57.73
2022-08-04T03:25:00.535Z,58.43
2022-08-04T03:26:01.628Z,56.95
2022-08-04T03:27:00.482Z,58.95
2022-08-04T03:28:00.495Z,59.24
2022-08-04T03:29:00.497Z,57.57
2022-08-04T03:30:00.458Z,59.83
2022-08-04T03:31:00.483Z,58.29
2022-08-04T03:32:00.530Z,57.50
2022-08-04T03:33:00.448Z,57.16
2022-08-04T03:34:00.479Z,60.02
2022-08-04T03:35:01.399Z,60.02
2022-08-04T03:36:00.470Z,58.98
2022-08-04T03:37:00.450Z,56.04
2022-08-04T03:38:00.452Z,56.70
2022-08-04T03:39:00.554Z,57.51
2022-08-04T03:40:00.409Z,56.79
2022-08-04T03:41:01.402Z,57.41
2022-08-04T03:42:04.093Z,57.24
2022-08-04T03:43:00.476Z,58.32
2022-08-04T03:44:00.390Z,58.73
2022-08-04T03:45:00.485Z,56.78
2022-08-04T03:46:00.371Z,54.74
2022-08-04T03:47:00.389Z,56.38
2022-08-04T03:48:00.419Z,55.45
2022-08-04T03:49:00.336Z,55.61
2022-08-04T03:50:00.356Z,54.50
2022-08-04T03:51:00.311Z,55.28
2022-08-04T03:52:00.333Z,57.06
2022-08-04T03:53:00.341Z,56.89
2022-08-04T03:54:00.355Z,58.94
2022-08-04T03:55:00.306Z,56.13
2022-08-04T03:56:00.301Z,57.73
2022-08-04T03:57:00.304Z,57.73
2022-08-04T03:58:00.287Z,55.23
2022-08-04T03:59:00.343Z,57.68
2022-08-04T04:00:00.338Z,59.09
2022-08-04T04:01:00.278Z,56.70
2022-08-04T04:02:02.247Z,57.51
2022-08-04T04:03:01.271Z,57.87
2022-08-04T04:04:00.326Z,61.45
2022-08-04T04:05:01.043Z,59.18
2022-08-04T04:06:02.306Z,57.12
2022-08-04T04:07:00.138Z,57.33
2022-08-04T04:08:01.878Z,56.39
2022-08-04T04:09:01.129Z,58.69
2022-08-04T04:10:05.771Z,58.03
2022-08-04T04:11:01.094Z,57.83
2022-08-04T04:12:00.104Z,60.62
2022-08-04T04:13:00.095Z,58.57
2022-08-04T04:14:00.073Z,59.51
2022-08-04T04:15:00.293Z,59.81
2022-08-04T04:16:00.077Z,60.69
2022-08-04T04:17:00.058Z,59.78
2022-08-04T04:18:00.068Z,60.80
2022-08-04T04:19:00.182Z,60.75
2022-08-04T04:20:00.133Z,57.54
2022-08-04T04:21:00.197Z,60.00
2022-08-04T04:22:00.154Z,57.49
2022-08-04T04:23:00.233Z,59.25
2022-08-04T04:24:00.117Z,57.82
2022-08-04T04:25:00.175Z,60.01
2022-08-04T04:26:00.116Z,59.70
2022-08-04T04:27:00.174Z,59.88
2022-08-04T04:28:45.692Z,58.63
2022-08-04T04:29:03.397Z,58.94
2022-08-04T04:30:01.065Z,59.12
2022-08-04T04:31:00.062Z,59.92
2022-08-04T04:32:00.074Z,60.60
2022-08-04T04:33:00.015Z,58.07
2022-08-04T04:34:00.104Z,58.88
2022-08-04T04:35:00.069Z,58.40
2022-08-04T04:36:00.032Z,57.95
2022-08-04T04:37:00.049Z,56.23
2022-08-04T04:38:00.001Z,57.62
2022-08-04T04:39:00.063Z,58.29
2022-08-04T04:39:59.994Z,57.37
2022-08-04T04:40:59.993Z,59.03
2022-08-04T04:41:59.960Z,59.24
2022-08-04T04:42:59.987Z,57.55
2022-08-04T04:44:00.016Z,58.38
2022-08-04T04:44:59.936Z,59.15
2022-08-04T04:46:00.934Z,61.17
2022-08-04T04:46:59.944Z,61.30
2022-08-04T04:48:08.441Z,59.42
2022-08-04T04:49:00.972Z,59.12
2022-08-04T04:50:00.012Z,58.60
2022-08-04T04:50:59.905Z,59.43
2022-08-04T04:52:00.016Z,59.26
2022-08-04T04:52:59.901Z,59.26
2022-08-04T04:54:00.690Z,58.19
2022-08-04T04:54:59.915Z,58.55
2022-08-04T04:55:59.861Z,59.49
2022-08-04T04:56:59.900Z,57.81
2022-08-04T04:57:59.853Z,57.97
2022-08-04T04:58:59.909Z,58.62
2022-08-04T04:59:59.847Z,58.66
2022-08-04T05:00:59.848Z,57.77
2022-08-04T05:01:59.891Z,58.36
2022-08-04T05:03:01.657Z,58.09
2022-08-04T05:04:00.892Z,57.03
2022-08-04T05:05:00.826Z,57.83
2022-08-04T05:06:00.793Z,56.99
2022-08-04T05:06:59.846Z,56.88
2022-08-04T05:07:59.792Z,58.37
2022-08-04T05:09:00.713Z,56.40
2022-08-04T05:09:59.810Z,57.08
2022-08-04T05:10:59.869Z,55.87
2022-08-04T05:11:59.694Z,56.09
2022-08-04T05:14:37.120Z,55.62
2022-08-04T05:14:38.963Z,56.13
2022-08-04T05:15:00.990Z,57.63
2022-08-04T05:15:59.655Z,56.28
2022-08-04T05:16:59.720Z,53.62
2022-08-04T05:17:59.736Z,55.66
2022-08-04T05:18:59.623Z,56.50
2022-08-04T05:19:59.724Z,55.77
2022-08-04T05:20:59.822Z,57.02
2022-08-04T05:21:59.723Z,55.68
2022-08-04T05:22:59.652Z,58.22
2022-08-04T05:23:59.703Z,55.56
2022-08-04T05:24:59.698Z,55.85
2022-08-04T05:26:00.248Z,55.89
2022-08-04T05:26:59.669Z,55.58
2022-08-04T05:27:59.654Z,55.12
2022-08-04T05:28:59.659Z,55.72
2022-08-04T05:29:59.689Z,56.08
2022-08-04T05:30:59.650Z,56.07
2022-08-04T05:31:59.815Z,55.63
2022-08-04T05:33:00.101Z,56.83
2022-08-04T05:33:59.716Z,55.62
2022-08-04T05:34:59.631Z,55.51
2022-08-04T05:36:17.056Z,58.17
2022-08-04T05:37:00.564Z,57.25
2022-08-04T05:38:01.626Z,55.59
2022-08-04T05:38:59.659Z,55.91
2022-08-04T05:39:59.619Z,55.79
2022-08-04T05:40:59.623Z,57.21
2022-08-04T05:42:04.477Z,54.83
2022-08-04T05:43:00.567Z,58.38
2022-08-04T05:43:59.671Z,57.63
2022-08-04T05:44:59.575Z,59.20
2022-08-04T05:45:59.563Z,57.05
2022-08-04T05:46:59.518Z,54.77
2022-08-04T05:47:59.561Z,58.53
2022-08-04T05:48:59.538Z,54.85
2022-08-04T05:50:01.738Z,54.77
2022-08-04T05:51:01.229Z,55.90
2022-08-04T05:52:00.474Z,51.54
2022-08-04T05:52:59.895Z,58.61
2022-08-04T05:53:59.548Z,55.80
2022-08-04T05:54:59.559Z,56.62
2022-08-04T05:56:00.059Z,56.43
2022-08-04T05:57:00.503Z,55.61
2022-08-04T05:57:59.431Z,53.82
2022-08-04T05:58:59.460Z,53.74
2022-08-04T05:59:59.432Z,54.96
2022-08-04T06:00:59.445Z,56.33
2022-08-04T06:01:59.468Z,55.08
2022-08-04T06:02:59.425Z,58.13
2022-08-04T06:03:59.367Z,55.58
2022-08-04T06:04:59.424Z,55.63
2022-08-04T06:05:59.342Z,56.40
2022-08-04T06:06:59.386Z,55.67
2022-08-04T06:08:12.259Z,56.14
2022-08-04T06:09:00.348Z,54.05
2022-08-04T06:09:59.363Z,55.95
2022-08-04T06:10:59.228Z,56.32
2022-08-04T06:12:03.631Z,55.55
2022-08-04T06:12:59.291Z,55.33
2022-08-04T06:13:59.226Z,56.81
2022-08-04T06:14:59.694Z,55.21
2022-08-04T06:15:59.499Z,53.21
2022-08-04T06:16:59.218Z,56.46
2022-08-04T06:18:35.648Z,52.68
2022-08-04T06:20:02.033Z,56.62
2022-08-04T06:20:19.956Z,54.43
2022-08-04T06:21:01.571Z,53.00
2022-08-04T06:21:59.194Z,52.74
2022-08-04T06:22:59.266Z,53.84
2022-08-04T06:24:04.292Z,55.20
2022-08-04T06:25:01.322Z,54.88
2022-08-04T06:25:59.264Z,56.49
2022-08-04T06:26:59.328Z,56.13
2022-08-04T06:27:59.230Z,52.86
2022-08-04T06:28:59.222Z,55.05
2022-08-04T06:29:59.218Z,55.31
2022-08-04T06:30:59.219Z,54.61
2022-08-04T06:32:30.375Z,53.45
2022-08-04T06:33:04.314Z,55.13
2022-08-04T06:33:59.302Z,54.21
2022-08-04T06:34:59.285Z,57.37
2022-08-04T06:35:59.174Z,54.73
2022-08-04T06:36:59.394Z,53.73
2022-08-04T06:38:01.234Z,54.72
2022-08-04T06:39:00.298Z,54.88
2022-08-04T06:39:59.162Z,53.94
2022-08-04T06:40:59.296Z,55.01
2022-08-04T06:42:17.537Z,56.43
2022-08-04T06:43:00.144Z,53.71
2022-08-04T06:43:59.101Z,54.79
2022-08-04T06:44:59.172Z,54.30
2022-08-04T06:45:59.203Z,54.18
2022-08-04T06:46:59.120Z,53.51
2022-08-04T06:47:59.084Z,53.90
2022-08-04T06:48:59.109Z,53.52
2022-08-04T06:51:25.743Z,51.77
2022-08-04T06:51:30.524Z,56.58
2022-08-04T06:51:59.994Z,56.86
2022-08-04T06:52:59.122Z,54.94
2022-08-04T06:53:59.148Z,52.04
2022-08-04T06:54:59.095Z,54.62
2022-08-04T06:55:59.122Z,53.67
2022-08-04T06:56:59.080Z,53.72
2022-08-04T06:58:02.864Z,52.93
2022-08-04T06:59:00.229Z,53.29
2022-08-04T06:59:58.953Z,54.91
2022-08-04T07:00:58.992Z,54.51
2022-08-04T07:01:58.963Z,53.79
2022-08-04T07:02:58.943Z,57.37
2022-08-04T07:03:58.913Z,55.26
2022-08-04T07:04:59.029Z,53.00
2022-08-04T07:05:59.025Z,53.82
2022-08-04T07:06:59.912Z,55.64
2022-08-04T07:07:58.997Z,54.62
2022-08-04T07:08:58.908Z,54.38
2022-08-04T07:09:58.955Z,53.95
2022-08-04T07:10:58.890Z,55.79
2022-08-04T07:11:58.927Z,56.01
2022-08-04T07:12:59.932Z,54.25
2022-08-04T07:13:59.254Z,53.81
2022-08-04T07:14:59.016Z,52.85
2022-08-04T07:15:59.024Z,53.80
2022-08-04T07:16:58.904Z,56.16
2022-08-04T07:18:00.233Z,51.12
2022-08-04T07:18:58.967Z,51.79
2022-08-04T07:20:01.042Z,52.39
2022-08-04T07:20:58.950Z,53.83
2022-08-04T07:22:16.128Z,56.11
2022-08-04T07:22:59.900Z,58.06
2022-08-04T07:23:58.844Z,53.98
2022-08-04T07:24:59.023Z,53.77
2022-08-04T07:26:12.428Z,52.89
2022-08-04T07:26:59.815Z,53.89
2022-08-04T07:27:58.850Z,55.77
2022-08-04T07:28:58.800Z,52.99
2022-08-04T07:29:58.833Z,55.45
2022-08-04T07:30:58.878Z,56.83
2022-08-04T07:31:58.759Z,54.41
2022-08-04T07:32:58.778Z,56.96
2022-08-04T07:34:16.901Z,73.43
2022-08-04T07:34:59.652Z,74.78
2022-08-04T07:36:09.323Z,64.97
2022-08-04T07:36:59.815Z,74.76
2022-08-04T07:37:58.729Z,76.35
2022-08-04T07:38:58.750Z,70.55
2022-08-04T07:39:58.789Z,69.15
2022-08-04T07:40:58.598Z,76.58
2022-08-04T07:41:58.726Z,71.25
2022-08-04T07:42:58.564Z,76.20
2022-08-04T07:43:58.570Z,75.92
2022-08-04T07:44:58.716Z,57.98
2022-08-04T07:45:58.589Z,60.02
2022-08-04T07:46:58.586Z,56.27
2022-08-04T07:48:05.386Z,70.04
2022-08-04T07:48:59.566Z,75.05
2022-08-04T07:49:58.556Z,72.02
2022-08-04T07:50:58.697Z,72.65
2022-08-04T07:51:58.628Z,57.05
2022-08-04T07:53:15.625Z,58.81
2022-08-04T07:54:00.617Z,72.54
2022-08-04T07:54:58.617Z,75.55
2022-08-04T07:55:58.629Z,58.30
2022-08-04T07:56:58.643Z,61.32
2022-08-04T07:57:58.637Z,77.05
2022-08-04T07:58:58.656Z,61.15
2022-08-04T07:59:58.581Z,81.25
2022-08-04T08:00:58.555Z,61.49
2022-08-04T08:01:58.559Z,58.01
2022-08-04T08:02:58.635Z,54.44
2022-08-04T08:03:58.658Z,59.00
2022-08-04T08:04:58.582Z,54.49
2022-08-04T08:06:17.581Z,51.36
2022-08-04T08:06:59.497Z,51.68
2022-08-04T08:07:58.525Z,55.66
2022-08-04T08:08:58.650Z,53.75
2022-08-04T08:09:58.504Z,55.38
2022-08-04T08:10:58.502Z,55.95
2022-08-04T08:12:38.656Z,51.40
2022-08-04T08:12:59.377Z,58.43
2022-08-04T08:13:58.435Z,52.47
2022-08-04T08:14:58.516Z,52.05
2022-08-04T08:15:58.437Z,53.38
2022-08-04T08:16:58.450Z,50.85
2022-08-04T08:18:00.758Z,51.64
2022-08-04T08:18:58.437Z,54.95
2022-08-04T08:19:58.404Z,52.70
2022-08-04T08:20:58.282Z,52.19
2022-08-04T08:21:59.312Z,56.29
2022-08-04T08:22:58.340Z,54.27
2022-08-04T08:23:58.284Z,52.64
2022-08-04T08:24:58.525Z,51.39
2022-08-04T08:25:58.437Z,52.04
2022-08-04T08:26:58.366Z,54.08
2022-08-04T08:27:58.460Z,50.32
2022-08-04T08:28:58.369Z,55.08
2022-08-04T08:29:58.410Z,53.03
2022-08-04T08:30:59.031Z,52.21
2022-08-04T08:32:02.653Z,48.34
2022-08-04T08:33:00.300Z,54.93
2022-08-04T08:33:58.447Z,51.07
2022-08-04T08:34:58.323Z,48.36
2022-08-04T08:35:58.347Z,49.72
2022-08-04T08:36:58.338Z,50.27
2022-08-04T08:37:58.335Z,49.37
2022-08-04T08:38:58.361Z,54.49
2022-08-04T08:39:58.300Z,52.89
2022-08-04T08:40:58.342Z,52.99
2022-08-04T08:41:58.274Z,56.11
2022-08-04T08:42:58.255Z,53.32
2022-08-04T08:44:06.347Z,50.81
2022-08-04T08:44:59.283Z,47.83
2022-08-04T08:45:58.271Z,53.53
2022-08-04T08:46:58.285Z,54.87
2022-08-04T08:48:04.782Z,53.94
2022-08-04T08:48:59.329Z,54.47
2022-08-04T08:50:00.764Z,48.52
2022-08-04T08:50:58.271Z,48.70
2022-08-04T08:51:58.244Z,54.18
2022-08-04T08:53:02.603Z,55.20
2022-08-04T08:53:58.198Z,52.60
2022-08-04T08:54:58.304Z,57.14
2022-08-04T08:55:58.170Z,52.29
2022-08-04T08:56:58.292Z,55.58
2022-08-04T08:57:59.981Z,54.52
2022-08-04T08:58:58.145Z,51.78
2022-08-04T08:59:58.107Z,52.72
2022-08-04T09:00:58.099Z,52.13
2022-08-04T09:01:58.134Z,53.11
2022-08-04T09:03:03.839Z,54.60
2022-08-04T09:03:59.088Z,50.90
2022-08-04T09:04:58.049Z,57.71
2022-08-04T09:05:58.158Z,53.13
2022-08-04T09:06:58.105Z,52.84
2022-08-04T09:07:58.180Z,54.36
2022-08-04T09:08:58.088Z,53.67
2022-08-04T09:09:58.102Z,51.08
2022-08-04T09:10:58.138Z,50.03
2022-08-04T09:11:58.172Z,51.30
2022-08-04T09:12:58.147Z,51.01
2022-08-04T09:13:58.127Z,54.04
2022-08-04T09:14:58.060Z,56.61
2022-08-04T09:15:58.152Z,50.44
2022-08-04T09:16:58.091Z,52.59
2022-08-04T09:17:58.133Z,50.64
2022-08-04T09:18:58.047Z,51.89
2022-08-04T09:19:58.038Z,53.29
2022-08-04T09:20:58.009Z,57.31
2022-08-04T09:21:58.008Z,57.06
2022-08-04T09:22:58.114Z,58.05
2022-08-04T09:23:58.013Z,58.20
2022-08-04T09:24:57.949Z,53.41
2022-08-04T09:25:57.952Z,48.55
2022-08-04T09:27:00.148Z,57.44
2022-08-04T09:27:59.845Z,57.18
2022-08-04T09:28:57.861Z,57.45
2022-08-04T09:29:57.883Z,53.82
2022-08-04T09:30:57.964Z,52.80
2022-08-04T09:32:06.849Z,50.89
2022-08-04T09:32:58.952Z,54.83
2022-08-04T09:33:59.266Z,53.16
2022-08-04T09:35:03.701Z,52.63
2022-08-04T09:35:58.867Z,48.43
2022-08-04T09:36:57.871Z,47.80
2022-08-04T09:37:57.899Z,49.89
2022-08-04T09:38:58.082Z,55.25
2022-08-04T09:39:57.871Z,52.57
2022-08-04T09:40:58.734Z,53.35
2022-08-04T09:41:57.839Z,52.63
2022-08-04T09:42:57.814Z,50.58
2022-08-04T09:44:43.163Z,50.45
2022-08-04T09:45:05.783Z,49.89
2022-08-04T09:45:59.830Z,47.66
2022-08-04T09:46:59.737Z,52.50
2022-08-04T09:47:57.853Z,51.88
2022-08-04T09:48:57.901Z,50.59
2022-08-04T09:49:57.831Z,52.40
2022-08-04T09:50:58.791Z,51.24
2022-08-04T09:51:59.594Z,50.38
2022-08-04T09:52:58.768Z,52.46
2022-08-04T09:53:57.831Z,50.95
2022-08-04T09:54:57.850Z,48.42
2022-08-04T09:56:01.182Z,47.53
2022-08-04T09:56:59.845Z,47.69
2022-08-04T09:57:57.858Z,54.58
2022-08-04T09:58:57.754Z,56.34
2022-08-04T09:59:57.914Z,51.59
2022-08-04T10:00:57.760Z,50.53
2022-08-04T10:01:58.975Z,52.50
2022-08-04T10:02:57.799Z,50.13
2022-08-04T10:03:57.840Z,51.28
2022-08-04T10:04:57.824Z,50.10
2022-08-04T10:05:57.703Z,50.29
2022-08-04T10:06:57.798Z,51.69
2022-08-04T10:07:59.523Z,51.45
2022-08-04T10:08:58.706Z,48.09
2022-08-04T10:09:57.718Z,48.59
2022-08-04T10:10:57.654Z,47.48
2022-08-04T10:11:57.554Z,55.45
2022-08-04T10:12:57.558Z,64.41
2022-08-04T10:13:57.598Z,48.53
2022-08-04T10:14:57.591Z,52.03
2022-08-04T10:15:57.640Z,50.14
2022-08-04T10:16:57.548Z,47.20
2022-08-04T10:17:57.672Z,43.38
2022-08-04T10:18:57.717Z,45.12
2022-08-04T10:19:58.513Z,42.92
2022-08-04T10:21:02.862Z,43.94
2022-08-04T10:22:29.794Z,45.09
2022-08-04T10:23:11.072Z,43.31
2022-08-04T10:24:00.124Z,45.26
2022-08-04T10:24:57.669Z,45.72
2022-08-04T10:26:07.667Z,47.10
2022-08-04T10:26:59.524Z,51.28
2022-08-04T10:27:57.663Z,46.24
2022-08-04T10:28:57.595Z,45.00
2022-08-04T10:29:57.568Z,45.79
2022-08-04T10:30:57.595Z,45.67
2022-08-04T10:31:57.872Z,47.49
2022-08-04T10:32:57.566Z,46.24
2022-08-04T10:33:57.494Z,45.37
2022-08-04T10:34:57.514Z,46.29
2022-08-04T10:35:57.534Z,46.60
2022-08-04T10:36:57.622Z,53.05
2022-08-04T10:38:01.446Z,56.61
2022-08-04T10:38:57.492Z,47.54
2022-08-04T10:39:57.521Z,50.92
2022-08-04T10:40:57.438Z,50.16
2022-08-04T10:41:59.753Z,46.31
2022-08-04T10:42:57.518Z,47.04
2022-08-04T10:43:57.397Z,47.16
2022-08-04T10:44:58.478Z,45.62
2022-08-04T10:45:58.228Z,47.97
2022-08-04T10:46:57.452Z,46.97
2022-08-04T10:47:57.579Z,48.02
2022-08-04T10:48:57.421Z,47.45
2022-08-04T10:49:57.515Z,50.45
2022-08-04T10:50:58.323Z,48.12
2022-08-04T10:51:59.613Z,45.95
2022-08-04T10:52:57.499Z,47.38
2022-08-04T10:53:57.385Z,51.10
2022-08-04T10:54:57.399Z,49.29
2022-08-04T10:56:06.921Z,48.92
2022-08-04T10:56:58.416Z,49.53
2022-08-04T10:57:57.348Z,49.39
2022-08-04T10:58:57.397Z,52.99
2022-08-04T10:59:59.071Z,50.23
2022-08-04T11:00:58.354Z,52.06
2022-08-04T11:02:02.659Z,47.87
2022-08-04T11:02:58.258Z,51.44
2022-08-04T11:03:57.294Z,51.39
2022-08-04T11:04:57.293Z,53.44
2022-08-04T11:05:57.229Z,55.11
2022-08-04T11:06:57.249Z,54.08
2022-08-04T11:07:57.139Z,55.07
2022-08-04T11:08:57.207Z,53.90
2022-08-04T11:09:57.217Z,54.61
2022-08-04T11:10:57.114Z,55.42
2022-08-04T11:12:01.300Z,54.42
2022-08-04T11:12:59.559Z,54.80
2022-08-04T11:13:57.340Z,56.00
2022-08-04T11:14:57.353Z,50.18
2022-08-04T11:15:57.264Z,46.73
2022-08-04T11:16:57.234Z,45.90
2022-08-04T11:17:57.237Z,46.10
2022-08-04T11:18:57.233Z,46.91
2022-08-04T11:20:07.676Z,51.54
2022-08-04T11:20:59.148Z,53.52
2022-08-04T11:21:57.110Z,53.08
2022-08-04T11:22:57.281Z,53.59
2022-08-04T11:23:57.200Z,52.10
2022-08-04T11:24:57.275Z,48.24
2022-08-04T11:25:57.225Z,55.26
2022-08-04T11:26:57.244Z,52.94
2022-08-04T11:27:57.182Z,49.18
2022-08-04T11:29:03.704Z,49.55
2022-08-04T11:29:59.234Z,49.66
2022-08-04T11:30:57.165Z,49.49
2022-08-04T11:31:57.173Z,51.89
2022-08-04T11:32:57.160Z,51.32
2022-08-04T11:33:57.220Z,48.93
2022-08-04T11:34:57.330Z,45.20
2022-08-04T11:35:57.220Z,44.79
2022-08-04T11:36:57.146Z,44.99
2022-08-04T11:37:57.025Z,47.07
2022-08-04T11:38:57.090Z,46.37
2022-08-04T11:39:57.018Z,47.08
2022-08-04T11:41:02.679Z,49.06
2022-08-04T11:41:58.011Z,48.13
2022-08-04T11:42:57.077Z,45.01
2022-08-04T11:44:03.147Z,44.91
2022-08-04T11:44:57.979Z,47.50
2022-08-04T11:45:57.052Z,45.85
2022-08-04T11:46:56.989Z,44.69
2022-08-04T11:47:56.955Z,43.46
2022-08-04T11:48:56.925Z,47.58
2022-08-04T11:49:58.233Z,41.97
2022-08-04T11:50:57.056Z,45.68
2022-08-04T11:51:57.056Z,44.36
2022-08-04T11:52:57.062Z,42.16
2022-08-04T11:53:57.090Z,41.86
2022-08-04T11:54:56.985Z,42.62
2022-08-04T11:56:06.819Z,43.29
2022-08-04T11:56:58.034Z,43.00
2022-08-04T11:57:56.999Z,45.55
2022-08-04T11:58:57.054Z,45.46
2022-08-04T11:59:56.993Z,43.10
2022-08-04T12:00:58.096Z,48.55
2022-08-04T12:01:57.082Z,47.91
2022-08-04T12:02:57.030Z,44.95
2022-08-04T12:03:59.741Z,44.87
2022-08-04T12:04:57.848Z,40.98
2022-08-04T12:05:56.841Z,41.51
2022-08-04T12:07:15.055Z,41.87
2022-08-04T12:07:58.903Z,42.46
2022-08-04T12:08:56.941Z,41.85
2022-08-04T12:09:56.885Z,47.78
2022-08-04T12:10:56.827Z,45.89
2022-08-04T12:11:56.985Z,45.02
2022-08-04T12:12:56.890Z,47.83
2022-08-04T12:14:00.583Z,44.43
2022-08-04T12:14:57.900Z,43.63
2022-08-04T12:15:56.844Z,42.63
2022-08-04T12:16:56.801Z,42.89
2022-08-04T12:17:56.823Z,45.80
2022-08-04T12:18:56.760Z,44.58
2022-08-04T12:20:04.630Z,42.50
2022-08-04T12:20:57.741Z,44.00
2022-08-04T12:21:57.044Z,42.05
2022-08-04T12:22:56.842Z,44.31
2022-08-04T12:24:00.705Z,46.65
2022-08-04T12:24:56.751Z,46.37
2022-08-04T12:25:56.718Z,45.49
2022-08-04T12:26:56.807Z,44.23
2022-08-04T12:27:56.940Z,46.15
2022-08-04T12:29:12.035Z,46.91
2022-08-04T12:30:58.759Z,49.93
2022-08-04T12:31:04.111Z,46.89
2022-08-04T12:31:57.664Z,46.71
2022-08-04T12:32:56.819Z,46.04
2022-08-04T12:34:05.095Z,45.19
2022-08-04T12:34:57.788Z,45.57
2022-08-04T12:35:58.082Z,48.29
2022-08-04T12:36:57.656Z,49.21
2022-08-04T12:37:56.889Z,47.83
2022-08-04T12:38:56.899Z,46.03
2022-08-04T12:40:27.385Z,51.79
2022-08-04T12:40:57.638Z,51.38
2022-08-04T12:41:56.750Z,48.48
2022-08-04T12:42:59.822Z,46.83
2022-08-04T12:43:56.825Z,48.41
2022-08-04T12:44:56.660Z,49.57
2022-08-04T12:45:56.687Z,48.31
2022-08-04T12:46:56.687Z,47.52
2022-08-04T12:47:57.743Z,46.53
2022-08-04T12:48:56.817Z,47.84
2022-08-04T12:50:01.477Z,44.65
2022-08-04T12:50:57.556Z,45.20
2022-08-04T12:52:07.917Z,46.91